sensor_id;sensor_type;location;lat;lon;timestamp;pressure;altitude;pressure_sealevel;temperature;humidity
10518;BME280;5307;42.548;22.968;2022-08-24T00:00:55;93612.44;;;19.47;100.00
10518;BME280;5307;42.548;22.968;2022-08-24T00:03:22;93615.44;;;19.54;100.00
10518;BME280;5307;42.548;22.968;2022-08-24T00:05:49;93604.66;;;19.45;100.00
10518;BME280;5307;42.548;22.968;2022-08-24T00:08:16;93613.19;;;19.59;100.00
10518;BME280;5307;42.548;22.968;2022-08-24T00:10:43;93604.53;;;19.68;100.00
10518;BME280;5307;42.548;22.968;2022-08-24T00:13:10;93606.13;;;19.58;100.00
10518;BME280;5307;42.548;22.968;2022-08-24T00:15:39;93608.13;;;19.51;100.00
10518;BME280;5307;42.548;22.968;2022-08-24T00:18:06;93603.94;;;19.34;100.00
10518;BME280;5307;42.548;22.968;2022-08-24T00:20:33;93615.31;;;19.30;100.00
10518;BME280;5307;42.548;22.968;2022-08-24T00:22:59;93618.81;;;19.31;100.00
10518;BME280;5307;42.548;22.968;2022-08-24T00:25:26;93615.31;;;19.30;100.00
10518;BME280;5307;42.548;22.968;2022-08-24T00:27:53;93614.69;;;19.60;100.00
10518;BME280;5307;42.548;22.968;2022-08-24T00:30:21;93617.94;;;19.52;100.00
10518;BME280;5307;42.548;22.968;2022-08-24T00:32:50;93611.16;;;19.53;100.00
10518;BME280;5307;42.548;22.968;2022-08-24T00:35:18;93614.47;;;19.46;100.00
10518;BME280;5307;42.548;22.968;2022-08-24T00:37:47;93608.50;;;19.31;100.00
10518;BME280;5307;42.548;22.968;2022-08-24T00:40:18;93610.47;;;19.36;100.00
10518;BME280;5307;42.548;22.968;2022-08-24T00:42:46;93597.16;;;19.35;100.00
10518;BME280;5307;42.548;22.968;2022-08-24T00:45:14;93598.69;;;19.24;100.00
10518;BME280;5307;42.548;22.968;2022-08-24T00:47:45;93594.34;;;19.40;100.00
10518;BME280;5307;42.548;22.968;2022-08-24T00:50:18;93591.56;;;19.40;100.00
10518;BME280;5307;42.548;22.968;2022-08-24T00:52:49;93595.13;;;19.35;100.00
10518;BME280;5307;42.548;22.968;2022-08-24T00:55:19;93596.38;;;19.34;100.00
10518;BME280;5307;42.548;22.968;2022-08-24T00:57:54;93604.47;;;19.32;100.00
10518;BME280;5307;42.548;22.968;2022-08-24T01:00:23;93599.44;;;19.31;100.00
10518;BME280;5307;42.548;22.968;2022-08-24T01:02:54;93585.34;;;19.28;100.00
10518;BME280;5307;42.548;22.968;2022-08-24T01:05:24;93601.94;;;19.34;100.00
10518;BME280;5307;42.548;22.968;2022-08-24T01:07:51;93606.00;;;19.22;100.00
10518;BME280;5307;42.548;22.968;2022-08-24T01:10:21;93608.41;;;19.42;100.00
10518;BME280;5307;42.548;22.968;2022-08-24T01:12:53;93611.69;;;19.58;100.00
10518;BME280;5307;42.548;22.968;2022-08-24T01:15:20;93606.88;;;19.52;100.00
10518;BME280;5307;42.548;22.968;2022-08-24T01:17:47;93614.44;;;19.58;100.00
10518;BME280;5307;42.548;22.968;2022-08-24T01:20:33;93624.94;;;19.70;100.00
10518;BME280;5307;42.548;22.968;2022-08-24T01:23:06;93620.47;;;19.50;100.00
10518;BME280;5307;42.548;22.968;2022-08-24T01:25:37;93605.88;;;19.50;100.00
10518;BME280;5307;42.548;22.968;2022-08-24T01:28:11;93619.38;;;19.76;100.00
10518;BME280;5307;42.548;22.968;2022-08-24T01:30:39;93619.25;;;19.46;100.00
10518;BME280;5307;42.548;22.968;2022-08-24T01:33:08;93618.22;;;19.49;100.00
10518;BME280;5307;42.548;22.968;2022-08-24T01:35:37;93611.91;;;19.54;100.00
10518;BME280;5307;42.548;22.968;2022-08-24T01:38:06;93622.03;;;19.40;100.00
10518;BME280;5307;42.548;22.968;2022-08-24T01:40:37;93623.34;;;19.28;100.00
10518;BME280;5307;42.548;22.968;2022-08-24T01:43:06;93632.63;;;19.36;100.00
10518;BME280;5307;42.548;22.968;2022-08-24T01:45:33;93624.84;;;19.35;100.00
10518;BME280;5307;42.548;22.968;2022-08-24T01:48:00;93627.19;;;19.08;100.00
10518;BME280;5307;42.548;22.968;2022-08-24T01:50:28;93629.38;;;19.26;100.00
10518;BME280;5307;42.548;22.968;2022-08-24T01:52:58;93630.09;;;19.38;100.00
10518;BME280;5307;42.548;22.968;2022-08-24T01:55:27;93634.47;;;19.17;100.00
10518;BME280;5307;42.548;22.968;2022-08-24T01:57:56;93635.47;;;19.14;100.00
10518;BME280;5307;42.548;22.968;2022-08-24T02:00:24;93637.72;;;19.21;100.00
10518;BME280;5307;42.548;22.968;2022-08-24T02:02:51;93643.22;;;19.32;100.00
10518;BME280;5307;42.548;22.968;2022-08-24T02:05:18;93631.66;;;19.28;100.00
10518;BME280;5307;42.548;22.968;2022-08-24T02:07:45;93634.97;;;19.21;100.00
10518;BME280;5307;42.548;22.968;2022-08-24T02:10:14;93636.66;;;19.35;100.00
10518;BME280;5307;42.548;22.968;2022-08-24T02:12:43;93640.44;;;19.38;99.47
10518;BME280;5307;42.548;22.968;2022-08-24T02:15:24;93637.16;;;19.39;98.83
10518;BME280;5307;42.548;22.968;2022-08-24T02:17:52;93622.34;;;19.31;100.00
10518;BME280;5307;42.548;22.968;2022-08-24T02:20:19;93634.66;;;19.36;99.06
10518;BME280;5307;42.548;22.968;2022-08-24T02:22:46;93637.72;;;19.21;99.09
10518;BME280;5307;42.548;22.968;2022-08-24T02:25:13;93636.69;;;19.30;99.54
10518;BME280;5307;42.548;22.968;2022-08-24T02:27:40;93638.72;;;19.29;99.82
10518;BME280;5307;42.548;22.968;2022-08-24T02:30:08;93635.16;;;19.34;99.35
10518;BME280;5307;42.548;22.968;2022-08-24T02:32:36;93638.91;;;19.37;99.25
10518;BME280;5307;42.548;22.968;2022-08-24T02:35:04;93629.63;;;19.34;99.52
10518;BME280;5307;42.548;22.968;2022-08-24T02:37:31;93637.97;;;19.28;98.41
10518;BME280;5307;42.548;22.968;2022-08-24T02:39:57;93641.88;;;19.50;99.42
10518;BME280;5307;42.548;22.968;2022-08-24T02:42:24;93645.75;;;19.24;99.23
10518;BME280;5307;42.548;22.968;2022-08-24T02:44:51;93652.56;;;19.29;99.85
10518;BME280;5307;42.548;22.968;2022-08-24T02:47:19;93657.91;;;19.05;100.00
10518;BME280;5307;42.548;22.968;2022-08-24T02:49:47;93667.22;;;19.07;100.00
10518;BME280;5307;42.548;22.968;2022-08-24T02:52:14;93672.03;;;18.84;100.00
10518;BME280;5307;42.548;22.968;2022-08-24T02:54:41;93672.53;;;18.94;100.00
10518;BME280;5307;42.548;22.968;2022-08-24T02:57:08;93669.19;;;19.23;100.00
10518;BME280;5307;42.548;22.968;2022-08-24T02:59:35;93681.50;;;19.28;98.59
10518;BME280;5307;42.548;22.968;2022-08-24T03:02:02;93686.56;;;19.13;99.61
10518;BME280;5307;42.548;22.968;2022-08-24T03:04:30;93697.13;;;19.20;99.24
10518;BME280;5307;42.548;22.968;2022-08-24T03:06:58;93696.13;;;19.28;98.77
10518;BME280;5307;42.548;22.968;2022-08-24T03:09:25;93696.88;;;19.23;98.54
10518;BME280;5307;42.548;22.968;2022-08-24T03:11:52;93695.59;;;19.24;99.32
10518;BME280;5307;42.548;22.968;2022-08-24T03:14:18;93700.63;;;19.26;99.58
10518;BME280;5307;42.548;22.968;2022-08-24T03:16:45;93689.06;;;19.22;99.31
10518;BME280;5307;42.548;22.968;2022-08-24T03:19:12;93691.16;;;18.82;100.00
10518;BME280;5307;42.548;22.968;2022-08-24T03:21:40;93691.41;;;18.84;100.00
10518;BME280;5307;42.548;22.968;2022-08-24T03:24:08;93686.31;;;19.11;100.00
10518;BME280;5307;42.548;22.968;2022-08-24T03:26:35;93689.41;;;18.74;100.00
10518;BME280;5307;42.548;22.968;2022-08-24T03:29:03;93684.38;;;18.89;100.00
10518;BME280;5307;42.548;22.968;2022-08-24T03:31:30;93683.31;;;19.03;100.00
10518;BME280;5307;42.548;22.968;2022-08-24T03:33:57;93677.28;;;18.99;100.00
10518;BME280;5307;42.548;22.968;2022-08-24T03:36:24;93683.59;;;18.94;100.00
10518;BME280;5307;42.548;22.968;2022-08-24T03:38:51;93688.13;;;18.91;100.00
10518;BME280;5307;42.548;22.968;2022-08-24T03:41:19;93683.88;;;18.79;100.00
10518;BME280;5307;42.548;22.968;2022-08-24T03:43:46;93677.09;;;18.75;100.00
10518;BME280;5307;42.548;22.968;2022-08-24T03:46:15;93680.84;;;18.83;100.00
10518;BME280;5307;42.548;22.968;2022-08-24T03:48:43;93678.81;;;18.83;100.00
10518;BME280;5307;42.548;22.968;2022-08-24T03:51:12;93682.88;;;18.77;100.00
10518;BME280;5307;42.548;22.968;2022-08-24T03:53:39;93687.91;;;18.73;100.00
10518;BME280;5307;42.548;22.968;2022-08-24T03:56:06;93695.91;;;18.93;100.00
10518;BME280;5307;42.548;22.968;2022-08-24T03:58:36;93691.66;;;18.86;100.00
10518;BME280;5307;42.548;22.968;2022-08-24T04:01:03;93690.91;;;18.91;100.00
10518;BME280;5307;42.548;22.968;2022-08-24T04:03:34;93690.13;;;18.96;100.00
10518;BME280;5307;42.548;22.968;2022-08-24T04:06:01;93691.41;;;18.84;100.00
10518;BME280;5307;42.548;22.968;2022-08-24T04:08:28;93694.94;;;18.79;100.00
10518;BME280;5307;42.548;22.968;2022-08-24T04:10:55;93695.19;;;18.81;100.00
10518;BME280;5307;42.548;22.968;2022-08-24T04:13:22;93695.19;;;18.70;100.00
10518;BME280;5307;42.548;22.968;2022-08-24T04:15:50;93694.41;;;18.81;100.00
10518;BME280;5307;42.548;22.968;2022-08-24T04:18:18;93698.72;;;18.76;100.00
10518;BME280;5307;42.548;22.968;2022-08-24T04:20:45;93688.09;;;18.58;100.00
10518;BME280;5307;42.548;22.968;2022-08-24T04:23:12;93699.44;;;18.60;100.00
10518;BME280;5307;42.548;22.968;2022-08-24T04:25:41;93699.44;;;18.60;100.00
10518;BME280;5307;42.548;22.968;2022-08-24T04:28:09;93693.41;;;18.33;100.00
10518;BME280;5307;42.548;22.968;2022-08-24T04:30:39;93681.34;;;18.53;100.00
10518;BME280;5307;42.548;22.968;2022-08-24T04:33:08;93680.59;;;18.47;100.00
10518;BME280;5307;42.548;22.968;2022-08-24T04:35:37;93683.34;;;18.47;100.00
10518;BME280;5307;42.548;22.968;2022-08-24T04:38:04;93688.13;;;18.52;100.00
10518;BME280;5307;42.548;22.968;2022-08-24T04:40:31;93684.59;;;18.63;100.00
10518;BME280;5307;42.548;22.968;2022-08-24T04:42:59;93687.88;;;18.61;100.00
10518;BME280;5307;42.548;22.968;2022-08-24T04:45:27;93688.66;;;18.67;100.00
10518;BME280;5307;42.548;22.968;2022-08-24T04:47:54;93689.66;;;18.59;100.00
10518;BME280;5307;42.548;22.968;2022-08-24T04:50:22;93695.94;;;18.65;100.00
10518;BME280;5307;42.548;22.968;2022-08-24T04:52:49;93699.97;;;18.81;100.00
10518;BME280;5307;42.548;22.968;2022-08-24T04:55:17;93702.97;;;18.77;100.00
10518;BME280;5307;42.548;22.968;2022-08-24T04:57:43;93701.47;;;18.82;100.00
10518;BME280;5307;42.548;22.968;2022-08-24T05:00:11;93706.50;;;18.66;100.00
10518;BME280;5307;42.548;22.968;2022-08-24T05:02:38;93705.75;;;18.77;100.00
10518;BME280;5307;42.548;22.968;2022-08-24T05:05:06;93704.22;;;18.82;100.00
10518;BME280;5307;42.548;22.968;2022-08-24T05:07:35;93705.75;;;18.88;100.00
10518;BME280;5307;42.548;22.968;2022-08-24T05:10:03;93715.03;;;18.96;100.00
10518;BME280;5307;42.548;22.968;2022-08-24T05:12:31;93705.50;;;18.86;100.00
10518;BME280;5307;42.548;22.968;2022-08-24T05:14:58;93702.22;;;18.93;100.00
10518;BME280;5307;42.548;22.968;2022-08-24T05:17:26;93705.47;;;18.97;100.00
10518;BME280;5307;42.548;22.968;2022-08-24T05:19:53;93697.91;;;19.09;100.00
10518;BME280;5307;42.548;22.968;2022-08-24T05:22:20;93696.41;;;18.97;100.00
10518;BME280;5307;42.548;22.968;2022-08-24T05:24:48;93687.38;;;18.91;100.00
10518;BME280;5307;42.548;22.968;2022-08-24T05:27:15;93692.84;;;19.19;100.00
10518;BME280;5307;42.548;22.968;2022-08-24T05:29:43;93701.91;;;19.19;100.00
10518;BME280;5307;42.548;22.968;2022-08-24T05:32:10;93699.06;;;19.47;100.00
10518;BME280;5307;42.548;22.968;2022-08-24T05:34:37;93696.78;;;19.51;99.84
10518;BME280;5307;42.548;22.968;2022-08-24T05:37:05;93698.75;;;19.68;99.16
10518;BME280;5307;42.548;22.968;2022-08-24T05:39:32;93693.53;;;19.59;99.46
10518;BME280;5307;42.548;22.968;2022-08-24T05:42:00;93695.00;;;19.65;99.28
10518;BME280;5307;42.548;22.968;2022-08-24T05:44:27;93697.56;;;19.58;98.89
10518;BME280;5307;42.548;22.968;2022-08-24T05:46:56;93697.28;;;20.08;98.11
10518;BME280;5307;42.548;22.968;2022-08-24T05:49:23;93686.59;;;20.29;95.45
10518;BME280;5307;42.548;22.968;2022-08-24T05:51:50;93696.66;;;20.32;94.74
10518;BME280;5307;42.548;22.968;2022-08-24T05:54:17;93691.66;;;20.25;94.57
10518;BME280;5307;42.548;22.968;2022-08-24T05:56:45;93693.34;;;20.33;92.58
10518;BME280;5307;42.548;22.968;2022-08-24T05:59:14;93693.03;;;20.07;93.66
10518;BME280;5307;42.548;22.968;2022-08-24T06:01:42;93689.56;;;20.42;92.87
10518;BME280;5307;42.548;22.968;2022-08-24T06:04:09;93700.47;;;20.64;89.46
10518;BME280;5307;42.548;22.968;2022-08-24T06:06:36;93692.88;;;20.70;90.04
10518;BME280;5307;42.548;22.968;2022-08-24T06:09:04;93691.00;;;21.09;86.49
10518;BME280;5307;42.548;22.968;2022-08-24T06:11:32;93682.41;;;21.12;82.86
10518;BME280;5307;42.548;22.968;2022-08-24T06:14:01;93678.50;;;21.21;80.93
10518;BME280;5307;42.548;22.968;2022-08-24T06:16:33;93679.84;;;21.14;82.08
10518;BME280;5307;42.548;22.968;2022-08-24T06:19:00;93658.91;;;21.38;83.07
10518;BME280;5307;42.548;22.968;2022-08-24T06:21:27;93669.38;;;21.50;81.13
10518;BME280;5307;42.548;22.968;2022-08-24T06:23:55;93670.06;;;21.56;84.03
10518;BME280;5307;42.548;22.968;2022-08-24T06:26:22;93671.75;;;21.16;82.10
10518;BME280;5307;42.548;22.968;2022-08-24T06:29:07;93670.22;;;21.64;82.80
10518;BME280;5307;42.548;22.968;2022-08-24T06:31:36;93667.75;;;21.79;80.39
10518;BME280;5307;42.548;22.968;2022-08-24T06:34:04;93675.19;;;21.22;83.34
10518;BME280;5307;42.548;22.968;2022-08-24T06:36:30;93675.41;;;21.73;79.57
10518;BME280;5307;42.548;22.968;2022-08-24T06:39:05;93681.19;;;21.94;81.42
10518;BME280;5307;42.548;22.968;2022-08-24T06:41:33;93683.75;;;21.73;77.80
10518;BME280;5307;42.548;22.968;2022-08-24T06:44:00;93684.50;;;21.74;77.75
10518;BME280;5307;42.548;22.968;2022-08-24T06:46:27;93689.31;;;21.73;76.71
10518;BME280;5307;42.548;22.968;2022-08-24T06:48:55;93678.91;;;21.98;76.96
10518;BME280;5307;42.548;22.968;2022-08-24T06:51:22;93681.13;;;21.81;75.82
10518;BME280;5307;42.548;22.968;2022-08-24T06:53:50;93688.75;;;22.18;76.13
10518;BME280;5307;42.548;22.968;2022-08-24T06:56:17;93685.72;;;22.35;74.39
10518;BME280;5307;42.548;22.968;2022-08-24T06:58:44;93682.88;;;22.21;75.27
10518;BME280;5307;42.548;22.968;2022-08-24T07:01:14;93686.69;;;22.37;74.87
10518;BME280;5307;42.548;22.968;2022-08-24T07:03:42;93691.28;;;22.54;73.08
10518;BME280;5307;42.548;22.968;2022-08-24T07:06:11;93695.72;;;22.75;71.80
10518;BME280;5307;42.548;22.968;2022-08-24T07:08:39;93701.44;;;23.15;73.96
10518;BME280;5307;42.548;22.968;2022-08-24T07:11:07;93692.38;;;22.64;70.62
10518;BME280;5307;42.548;22.968;2022-08-24T07:13:34;93696.66;;;22.84;70.08
10518;BME280;5307;42.548;22.968;2022-08-24T07:16:01;93703.94;;;23.45;70.21
10518;BME280;5307;42.548;22.968;2022-08-24T07:18:29;93702.63;;;23.33;67.69
10518;BME280;5307;42.548;22.968;2022-08-24T07:20:58;93706.88;;;23.07;67.94
10518;BME280;5307;42.548;22.968;2022-08-24T07:23:27;93708.72;;;23.18;67.61
10518;BME280;5307;42.548;22.968;2022-08-24T07:25:54;93711.47;;;23.05;69.51
10518;BME280;5307;42.548;22.968;2022-08-24T07:28:21;93703.94;;;23.45;67.14
10518;BME280;5307;42.548;22.968;2022-08-24T07:30:48;93705.34;;;22.93;65.92
10518;BME280;5307;42.548;22.968;2022-08-24T07:33:15;93705.81;;;23.10;67.90
10518;BME280;5307;42.548;22.968;2022-08-24T07:35:42;93698.56;;;23.34;68.24
10518;BME280;5307;42.548;22.968;2022-08-24T07:38:11;93706.16;;;23.20;65.45
10518;BME280;5307;42.548;22.968;2022-08-24T07:40:39;93700.75;;;22.77;67.31
10518;BME280;5307;42.548;22.968;2022-08-24T07:43:06;93695.09;;;23.15;66.27
10518;BME280;5307;42.548;22.968;2022-08-24T07:45:33;93700.34;;;23.05;65.02
10518;BME280;5307;42.548;22.968;2022-08-24T07:48:00;93703.91;;;23.19;66.07
10518;BME280;5307;42.548;22.968;2022-08-24T07:50:28;93698.47;;;23.39;66.85
10518;BME280;5307;42.548;22.968;2022-08-24T07:52:56;93689.69;;;23.62;64.47
10518;BME280;5307;42.548;22.968;2022-08-24T07:55:23;93685.22;;;23.00;65.63
10518;BME280;5307;42.548;22.968;2022-08-24T07:57:52;93695.41;;;22.98;66.28
10518;BME280;5307;42.548;22.968;2022-08-24T08:00:19;93680.53;;;23.35;65.12
10518;BME280;5307;42.548;22.968;2022-08-24T08:02:47;93674.88;;;23.40;66.27
10518;BME280;5307;42.548;22.968;2022-08-24T08:05:17;93677.56;;;23.46;64.29
10518;BME280;5307;42.548;22.968;2022-08-24T08:07:44;93680.22;;;23.91;64.30
10518;BME280;5307;42.548;22.968;2022-08-24T08:10:11;93678.66;;;23.69;63.89
10518;BME280;5307;42.548;22.968;2022-08-24T08:12:38;93681.22;;;23.67;64.28
10518;BME280;5307;42.548;22.968;2022-08-24T08:15:08;93679.91;;;23.55;65.65
10518;BME280;5307;42.548;22.968;2022-08-24T08:17:35;93658.25;;;23.35;65.44
10518;BME280;5307;42.548;22.968;2022-08-24T08:20:03;93671.00;;;23.57;64.40
10518;BME280;5307;42.548;22.968;2022-08-24T08:22:30;93679.47;;;23.91;64.30
10518;BME280;5307;42.548;22.968;2022-08-24T08:25:14;93675.75;;;23.75;64.20
10518;BME280;5307;42.548;22.968;2022-08-24T08:27:43;93674.75;;;23.86;64.76
10518;BME280;5307;42.548;22.968;2022-08-24T08:30:13;93677.13;;;23.42;64.93
10518;BME280;5307;42.548;22.968;2022-08-24T08:32:40;93669.00;;;23.71;65.51
10518;BME280;5307;42.548;22.968;2022-08-24T08:35:07;93673.81;;;23.70;65.53
10518;BME280;5307;42.548;22.968;2022-08-24T08:37:34;93665.31;;;23.36;65.70
10518;BME280;5307;42.548;22.968;2022-08-24T08:40:04;93675.50;;;23.47;65.09
10518;BME280;5307;42.548;22.968;2022-08-24T08:42:43;93676.38;;;23.55;65.20
10518;BME280;5307;42.548;22.968;2022-08-24T08:45:29;93671.97;;;23.86;65.08
10518;BME280;5307;42.548;22.968;2022-08-24T08:51:38;93676.38;;;23.94;64.53
10518;BME280;5307;42.548;22.968;2022-08-24T08:57:19;93683.31;;;24.48;64.89
10518;BME280;5307;42.548;22.968;2022-08-24T09:03:14;93702.28;;;24.84;60.80
10518;BME280;5307;42.548;22.968;2022-08-24T09:06:08;93704.25;;;24.55;61.89
10518;BME280;5307;42.548;22.968;2022-08-24T09:08:51;93710.66;;;24.63;60.27
10518;BME280;5307;42.548;22.968;2022-08-24T09:11:32;93704.22;;;25.10;61.97
10518;BME280;5307;42.548;22.968;2022-08-24T09:14:13;93716.13;;;25.31;60.92
10518;BME280;5307;42.548;22.968;2022-08-24T09:16:54;93721.28;;;24.17;60.84
10518;BME280;5307;42.548;22.968;2022-08-24T09:19:36;93696.50;;;24.82;63.38
10518;BME280;5307;42.548;22.968;2022-08-24T09:22:12;93698.28;;;25.34;60.03
10518;BME280;5307;42.548;22.968;2022-08-24T09:25:18;93706.25;;;24.88;57.64
10518;BME280;5307;42.548;22.968;2022-08-24T09:27:59;93689.03;;;25.47;58.17
10518;BME280;5307;42.548;22.968;2022-08-24T09:30:37;93676.03;;;25.78;56.37
10518;BME280;5307;42.548;22.968;2022-08-24T09:33:19;93682.16;;;25.20;56.63
10518;BME280;5307;42.548;22.968;2022-08-24T09:36:06;93678.06;;;25.21;58.83
10518;BME280;5307;42.548;22.968;2022-08-24T09:38:57;93667.84;;;25.31;59.00
10518;BME280;5307;42.548;22.968;2022-08-24T09:41:59;93667.97;;;25.74;56.58
10518;BME280;5307;42.548;22.968;2022-08-24T09:45:01;93657.63;;;25.90;57.87
10518;BME280;5307;42.548;22.968;2022-08-24T09:47:48;93662.06;;;25.86;56.73
10518;BME280;5307;42.548;22.968;2022-08-24T09:50:30;93663.84;;;25.75;57.54
10518;BME280;5307;42.548;22.968;2022-08-24T09:53:29;93646.00;;;25.50;56.79
10518;BME280;5307;42.548;22.968;2022-08-24T09:56:14;93650.50;;;25.89;55.98
10518;BME280;5307;42.548;22.968;2022-08-24T09:58:59;93645.06;;;26.35;58.12
10518;BME280;5307;42.548;22.968;2022-08-24T10:01:35;93643.06;;;25.92;53.49
10518;BME280;5307;42.548;22.968;2022-08-24T10:04:13;93634.78;;;26.22;54.15
10518;BME280;5307;42.548;22.968;2022-08-24T10:06:53;93636.00;;;25.98;54.66
10518;BME280;5307;42.548;22.968;2022-08-24T10:09:56;93628.94;;;26.13;53.45
10518;BME280;5307;42.548;22.968;2022-08-24T10:12:37;93618.63;;;26.67;56.79
10518;BME280;5307;42.548;22.968;2022-08-24T10:15:09;93634.34;;;27.15;53.16
10518;BME280;5307;42.548;22.968;2022-08-24T10:17:44;93620.31;;;27.00;57.27
10518;BME280;5307;42.548;22.968;2022-08-24T10:20:22;93619.75;;;27.47;54.44
10518;BME280;5307;42.548;22.968;2022-08-24T10:23:16;93611.34;;;27.40;53.06
10518;BME280;5307;42.548;22.968;2022-08-24T10:25:54;93617.16;;;27.34;51.66
10518;BME280;5307;42.548;22.968;2022-08-24T10:28:45;93613.31;;;27.77;53.21
10518;BME280;5307;42.548;22.968;2022-08-24T10:31:18;93608.75;;;27.11;50.53
10518;BME280;5307;42.548;22.968;2022-08-24T10:34:01;93617.72;;;26.95;49.75
10518;BME280;5307;42.548;22.968;2022-08-24T10:37:05;93615.19;;;26.30;53.44
10518;BME280;5307;42.548;22.968;2022-08-24T10:40:02;93621.06;;;26.03;52.42
10518;BME280;5307;42.548;22.968;2022-08-24T10:42:43;93620.63;;;25.84;53.73
10518;BME280;5307;42.548;22.968;2022-08-24T10:48:55;93615.59;;;26.34;52.00
10518;BME280;5307;42.548;22.968;2022-08-24T10:51:40;93627.19;;;26.46;51.68
10518;BME280;5307;42.548;22.968;2022-08-24T10:54:10;93618.28;;;26.62;53.34
10518;BME280;5307;42.548;22.968;2022-08-24T10:56:41;93618.59;;;25.85;52.05
10518;BME280;5307;42.548;22.968;2022-08-24T10:59:22;93607.25;;;25.90;53.34
10518;BME280;5307;42.548;22.968;2022-08-24T11:02:02;93614.91;;;26.87;53.01
10518;BME280;5307;42.548;22.968;2022-08-24T11:04:31;93605.44;;;26.16;52.34
10518;BME280;5307;42.548;22.968;2022-08-24T11:07:09;93613.25;;;25.66;52.23
10518;BME280;5307;42.548;22.968;2022-08-24T11:09:47;93614.34;;;25.91;52.00
10518;BME280;5307;42.548;22.968;2022-08-24T11:12:21;93620.47;;;25.90;53.11
10518;BME280;5307;42.548;22.968;2022-08-24T11:14:52;93605.91;;;25.84;54.29
10518;BME280;5307;42.548;22.968;2022-08-24T11:17:21;93604.69;;;26.08;52.50
10518;BME280;5307;42.548;22.968;2022-08-24T11:20:24;93602.16;;;26.40;52.05
10518;BME280;5307;42.548;22.968;2022-08-24T11:37:38;93599.97;;;26.61;49.80
10518;BME280;5307;42.548;22.968;2022-08-24T11:40:12;93599.75;;;26.52;50.97
10518;BME280;5307;42.548;22.968;2022-08-24T11:43:07;93590.97;;;26.40;52.05
10518;BME280;5307;42.548;22.968;2022-08-24T11:45:42;93597.34;;;26.63;50.82
10518;BME280;5307;42.548;22.968;2022-08-24T11:48:22;93589.28;;;26.37;50.67
10518;BME280;5307;42.548;22.968;2022-08-24T11:50:55;93579.41;;;26.67;50.22
10518;BME280;5307;42.548;22.968;2022-08-24T11:53:33;93586.50;;;26.98;51.96
10518;BME280;5307;42.548;22.968;2022-08-24T11:56:08;93581.28;;;26.87;50.81
10518;BME280;5307;42.548;22.968;2022-08-24T11:58:49;93584.28;;;26.66;51.25
10518;BME280;5307;42.548;22.968;2022-08-24T12:01:24;93573.81;;;26.67;50.53
10518;BME280;5307;42.548;22.968;2022-08-24T12:06:56;93559.03;;;26.97;51.25
10518;BME280;5307;42.548;22.968;2022-08-24T12:09:40;93560.16;;;27.01;49.78
10518;BME280;5307;42.548;22.968;2022-08-24T12:12:16;93565.19;;;27.26;53.45
10518;BME280;5307;42.548;22.968;2022-08-24T12:14:49;93564.44;;;26.87;51.38
10518;BME280;5307;42.548;22.968;2022-08-24T12:17:23;93555.13;;;26.84;53.74
10518;BME280;5307;42.548;22.968;2022-08-24T12:19:54;93554.19;;;27.05;53.32
10518;BME280;5307;42.548;22.968;2022-08-24T12:22:26;93547.25;;;27.13;50.71
10518;BME280;5307;42.548;22.968;2022-08-24T12:24:57;93549.97;;;27.44;51.08
10518;BME280;5307;42.548;22.968;2022-08-24T12:27:29;93549.50;;;27.23;50.37
10518;BME280;5307;42.548;22.968;2022-08-24T12:30:00;93543.19;;;26.76;51.18
10518;BME280;5307;42.548;22.968;2022-08-24T12:32:32;93545.59;;;26.80;52.12
10518;BME280;5307;42.548;22.968;2022-08-24T12:35:06;93537.38;;;26.82;52.04
10518;BME280;5307;42.548;22.968;2022-08-24T12:37:37;93544.28;;;26.88;52.91
10518;BME280;5307;42.548;22.968;2022-08-24T12:40:17;93540.53;;;26.93;53.58
10518;BME280;5307;42.548;22.968;2022-08-24T12:42:49;93543.00;;;26.67;53.16
10518;BME280;5307;42.548;22.968;2022-08-24T12:45:19;93535.31;;;27.05;52.31
10518;BME280;5307;42.548;22.968;2022-08-24T12:47:49;93535.28;;;26.98;52.12
10518;BME280;5307;42.548;22.968;2022-08-24T12:50:23;93549.72;;;26.48;53.31
10518;BME280;5307;42.548;22.968;2022-08-24T12:53:19;93542.44;;;26.60;54.71
10518;BME280;5307;42.548;22.968;2022-08-24T12:56:06;93547.28;;;26.52;52.97
10518;BME280;5307;42.548;22.968;2022-08-24T12:58:54;93548.78;;;26.53;53.15
10518;BME280;5307;42.548;22.968;2022-08-24T13:01:24;93545.22;;;26.45;53.46
10518;BME280;5307;42.548;22.968;2022-08-24T13:04:06;93541.69;;;26.75;52.81
10518;BME280;5307;42.548;22.968;2022-08-24T13:06:42;93540.00;;;26.80;53.01
10518;BME280;5307;42.548;22.968;2022-08-24T13:09:15;93528.97;;;26.74;53.05
10518;BME280;5307;42.548;22.968;2022-08-24T13:11:53;93519.25;;;26.45;53.22
10518;BME280;5307;42.548;22.968;2022-08-24T13:14:22;93517.75;;;26.74;52.60
10518;BME280;5307;42.548;22.968;2022-08-24T13:17:10;93524.50;;;26.79;53.78
10518;BME280;5307;42.548;22.968;2022-08-24T13:19:39;93530.47;;;26.37;54.39
10518;BME280;5307;42.548;22.968;2022-08-24T13:22:36;93529.09;;;26.15;54.92
10518;BME280;5307;42.548;22.968;2022-08-24T13:25:51;93524.47;;;26.33;55.44
10518;BME280;5307;42.548;22.968;2022-08-24T13:28:40;93528.56;;;26.24;56.15
10518;BME280;5307;42.548;22.968;2022-08-24T13:31:23;93533.41;;;26.09;55.55
10518;BME280;5307;42.548;22.968;2022-08-24T13:33:54;93535.75;;;25.89;55.69
10518;BME280;5307;42.548;22.968;2022-08-24T13:36:39;93536.72;;;25.92;56.04
10518;BME280;5307;42.548;22.968;2022-08-24T13:42:16;93536.09;;;26.37;55.99
10518;BME280;5307;42.548;22.968;2022-08-24T13:45:01;93534.13;;;26.01;58.25
10518;BME280;5307;42.548;22.968;2022-08-24T13:47:33;93554.75;;;25.75;57.51
10518;BME280;5307;42.548;22.968;2022-08-24T13:50:27;93548.00;;;25.63;57.78
10518;BME280;5307;42.548;22.968;2022-08-24T13:53:08;93548.06;;;25.42;59.51
10518;BME280;5307;42.548;22.968;2022-08-24T13:55:44;93558.81;;;25.67;60.22
10518;BME280;5307;42.548;22.968;2022-08-24T13:58:22;93543.66;;;25.55;59.21